createdAt,value
2022-12-20T00:01:29.121Z,8.20
2022-12-20T00:03:58.340Z,10.77
2022-12-20T00:06:25.746Z,9.20
2022-12-20T00:08:56.546Z,8.37
2022-12-20T00:11:25.146Z,7.33
2022-12-20T00:13:54.438Z,7.50
2022-12-20T00:16:27.699Z,9.47
2022-12-20T00:19:00.988Z,7.83
2022-12-20T00:21:30.431Z,7.07
2022-12-20T00:23:57.952Z,7.70
2022-12-20T00:26:27.945Z,8.30
2022-12-20T00:28:55.572Z,7.20
2022-12-20T00:31:25.262Z,8.87
2022-12-20T00:33:54.543Z,8.23
2022-12-20T00:36:22.855Z,8.10
2022-12-20T00:38:52.679Z,9.20
2022-12-20T00:41:22.733Z,11.47
2022-12-20T00:43:51.274Z,10.70
2022-12-20T00:46:19.615Z,9.30
2022-12-20T00:48:46.978Z,10.27
2022-12-20T00:51:16.978Z,9.27
2022-12-20T00:53:43.813Z,8.90
2022-12-20T00:56:13.567Z,8.33
2022-12-20T00:58:42.227Z,8.27
2022-12-20T01:01:25.994Z,8.07
2022-12-20T01:03:54.723Z,7.87
2022-12-20T01:06:23.180Z,7.53
2022-12-20T01:08:49.980Z,7.20
2022-12-20T01:11:20.345Z,7.27
2022-12-20T01:13:52.185Z,7.40
2022-12-20T01:16:30.132Z,7.80
2022-12-20T01:18:58.401Z,7.77
2022-12-20T01:21:27.740Z,7.00
2022-12-20T01:23:57.578Z,7.63
2022-12-20T01:26:26.578Z,8.57
2022-12-20T01:28:57.112Z,8.40
2022-12-20T01:31:24.653Z,7.63
2022-12-20T01:33:52.722Z,7.43
2022-12-20T01:36:26.679Z,7.90
2022-12-20T01:38:58.321Z,8.23
2022-12-20T01:41:28.138Z,8.60
2022-12-20T01:44:25.728Z,8.60
2022-12-20T01:46:55.383Z,8.50
2022-12-20T01:49:28.079Z,8.13
2022-12-20T01:52:06.212Z,7.87
2022-12-20T01:54:35.994Z,8.03
2022-12-20T01:57:08.511Z,8.03
2022-12-20T01:59:38.875Z,8.07
2022-12-20T02:02:09.868Z,7.77
2022-12-20T02:04:36.908Z,8.60
2022-12-20T02:07:07.831Z,8.00
2022-12-20T02:09:37.894Z,8.40
2022-12-20T02:12:19.907Z,8.30
2022-12-20T02:14:52.744Z,7.87
2022-12-20T02:17:46.521Z,7.47
2022-12-20T02:20:48.809Z,8.20
2022-12-20T02:23:35.760Z,7.43
2022-12-20T02:26:23.774Z,6.47
2022-12-20T02:29:26.042Z,7.27
2022-12-20T02:32:00.694Z,7.90
2022-12-20T02:34:30.200Z,8.53
2022-12-20T02:36:58.048Z,9.07
2022-12-20T02:39:32.550Z,7.30
2022-12-20T02:42:07.262Z,9.83
2022-12-20T02:44:57.456Z,10.17
2022-12-20T02:47:42.453Z,10.73
2022-12-20T02:50:11.340Z,9.63
2022-12-20T02:52:42.540Z,9.73
2022-12-20T02:55:43.124Z,8.90
2022-12-20T02:58:28.668Z,8.60
2022-12-20T03:00:59.683Z,7.47
2022-12-20T03:03:27.442Z,7.33
2022-12-20T03:05:56.479Z,7.03
2022-12-20T03:08:24.739Z,7.73
2022-12-20T03:10:52.754Z,6.60
2022-12-20T03:13:21.184Z,8.40
2022-12-20T03:15:54.407Z,8.43
2022-12-20T03:18:21.456Z,7.87
2022-12-20T03:20:49.876Z,7.23
2022-12-20T03:23:18.633Z,8.10
2022-12-20T03:25:45.896Z,6.90
2022-12-20T03:28:20.008Z,7.53
2022-12-20T03:30:47.447Z,7.57
2022-12-20T03:33:14.578Z,7.93
2022-12-20T03:35:42.987Z,7.37
2022-12-20T03:38:10.423Z,6.67
2022-12-20T03:40:38.075Z,6.40
2022-12-20T03:43:04.927Z,6.13
2022-12-20T03:45:31.785Z,6.07
2022-12-20T03:47:58.918Z,5.57
2022-12-20T03:50:36.699Z,5.27
2022-12-20T03:53:03.704Z,5.23
2022-12-20T03:55:31.772Z,5.10
2022-12-20T03:57:58.612Z,7.37
2022-12-20T04:00:30.329Z,5.47
2022-12-20T04:03:14.977Z,6.40
2022-12-20T04:05:42.078Z,9.93
2022-12-20T04:08:10.221Z,10.23
2022-12-20T04:10:57.258Z,9.63
2022-12-20T04:13:26.426Z,8.80
2022-12-20T04:15:59.837Z,8.90
2022-12-20T04:18:31.282Z,8.87
2022-12-20T04:21:04.365Z,8.50
2022-12-20T04:23:35.272Z,7.30
2022-12-20T04:26:04.431Z,7.40
2022-12-20T04:28:33.621Z,8.93
2022-12-20T04:31:01.251Z,6.47
2022-12-20T04:33:30.522Z,5.93
2022-12-20T04:35:57.969Z,6.00
2022-12-20T04:38:25.742Z,6.03
2022-12-20T04:40:54.995Z,5.33
2022-12-20T04:43:24.711Z,6.50
2022-12-20T04:45:58.165Z,6.67
2022-12-20T04:51:14.436Z,5.70
2022-12-20T04:53:49.393Z,7.20
2022-12-20T04:56:33.931Z,8.40
2022-12-20T04:59:06.791Z,7.77
2022-12-20T05:01:34.079Z,8.87
2022-12-20T05:04:02.213Z,8.50
2022-12-20T05:06:32.987Z,7.77
2022-12-20T05:08:59.863Z,9.07
2022-12-20T05:11:27.629Z,8.47
2022-12-20T05:13:54.938Z,8.37
2022-12-20T05:16:22.798Z,7.90
2022-12-20T05:18:49.937Z,7.73
2022-12-20T05:21:37.171Z,7.47
2022-12-20T05:24:25.247Z,7.80
2022-12-20T05:27:11.583Z,7.70
2022-12-20T05:29:38.649Z,7.23
2022-12-20T05:32:05.504Z,6.90
2022-12-20T05:34:35.968Z,7.17
2022-12-20T05:37:02.835Z,7.53
2022-12-20T05:39:33.815Z,6.70
2022-12-20T05:42:04.282Z,6.93
2022-12-20T05:44:31.254Z,6.13
2022-12-20T05:46:58.234Z,6.20
2022-12-20T05:49:28.965Z,6.97
2022-12-20T05:51:57.094Z,6.87
2022-12-20T05:54:27.059Z,6.37
2022-12-20T05:57:16.124Z,7.03
2022-12-20T05:59:44.659Z,6.80
2022-12-20T06:02:22.948Z,7.17
2022-12-20T06:04:55.585Z,7.17
2022-12-20T06:07:24.278Z,6.93
2022-12-20T06:09:57.077Z,6.93
2022-12-20T06:12:29.611Z,8.23
2022-12-20T06:14:57.265Z,6.33
2022-12-20T06:17:24.033Z,6.70
2022-12-20T06:19:54.840Z,7.00
2022-12-20T06:22:21.704Z,6.37
2022-12-20T06:24:53.697Z,7.37
2022-12-20T06:27:25.749Z,7.80
2022-12-20T06:30:01.131Z,8.23
2022-12-20T06:32:34.735Z,8.07
2022-12-20T06:35:03.236Z,6.60
2022-12-20T06:37:33.216Z,6.40
2022-12-20T06:40:00.323Z,8.03
2022-12-20T06:42:28.026Z,7.47
2022-12-20T06:44:56.069Z,6.90
2022-12-20T06:47:23.927Z,6.50
2022-12-20T06:49:51.058Z,6.97
2022-12-20T06:52:22.764Z,7.17
2022-12-20T06:54:51.940Z,6.70
2022-12-20T06:57:24.008Z,6.40
2022-12-20T06:59:52.131Z,7.60
2022-12-20T07:02:19.542Z,7.70
2022-12-20T07:04:46.511Z,7.10
2022-12-20T07:07:17.164Z,7.13
2022-12-20T07:09:44.469Z,7.90
2022-12-20T07:12:11.903Z,7.57
2022-12-20T07:14:38.771Z,7.93
2022-12-20T07:17:06.099Z,6.93
2022-12-20T07:19:33.693Z,7.53
2022-12-20T07:22:01.697Z,7.33
2022-12-20T07:24:29.450Z,6.13
2022-12-20T07:26:56.214Z,7.77
2022-12-20T07:29:23.219Z,8.27
2022-12-20T07:31:50.088Z,7.73
2022-12-20T07:34:17.392Z,7.50
2022-12-20T07:36:44.548Z,7.53
2022-12-20T07:39:11.288Z,6.03
2022-12-20T07:41:38.309Z,6.60
2022-12-20T07:44:06.286Z,6.53
2022-12-20T07:46:34.983Z,6.83
2022-12-20T07:49:01.974Z,6.00
2022-12-20T07:51:34.951Z,6.23
2022-12-20T07:54:46.023Z,6.33
2022-12-20T07:57:19.796Z,6.30
2022-12-20T07:59:55.240Z,5.63
2022-12-20T08:03:00.531Z,5.87
2022-12-20T08:05:28.792Z,5.17
2022-12-20T08:08:19.906Z,5.73
2022-12-20T08:10:47.191Z,5.23
2022-12-20T08:13:14.321Z,5.50
2022-12-20T08:15:44.558Z,6.30
2022-12-20T08:18:11.318Z,6.00
2022-12-20T08:20:38.097Z,6.77
2022-12-20T08:23:05.540Z,6.50
2022-12-20T08:25:41.166Z,9.70
2022-12-20T08:28:08.966Z,9.70
2022-12-20T08:30:35.856Z,8.17
2022-12-20T08:33:02.892Z,12.63
2022-12-20T08:35:29.936Z,7.87
2022-12-20T08:37:56.852Z,8.80
2022-12-20T08:40:23.646Z,7.80
2022-12-20T08:42:50.391Z,9.63
2022-12-20T08:45:19.877Z,8.37
2022-12-20T08:47:47.887Z,7.40
2022-12-20T08:50:15.482Z,7.77
2022-12-20T08:52:42.227Z,9.97
2022-12-20T08:55:12.743Z,8.53
2022-12-20T08:57:40.786Z,8.17
2022-12-20T09:00:08.449Z,8.13
2022-12-20T09:02:35.945Z,8.00
2022-12-20T09:05:04.939Z,7.80
2022-12-20T09:07:31.782Z,7.83
2022-12-20T09:09:58.917Z,8.27
2022-12-20T09:12:25.908Z,8.73
2022-12-20T09:14:52.729Z,7.87
2022-12-20T09:17:19.483Z,7.37
2022-12-20T09:19:46.872Z,7.57
2022-12-20T09:22:15.520Z,6.80
2022-12-20T09:24:42.363Z,7.43
2022-12-20T09:27:09.210Z,8.00
2022-12-20T09:29:37.419Z,7.07
2022-12-20T09:32:06.246Z,7.13
2022-12-20T09:34:33.756Z,6.63
2022-12-20T09:37:01.095Z,7.40
2022-12-20T09:39:28.038Z,6.47
2022-12-20T09:41:55.081Z,7.63
2022-12-20T09:44:31.602Z,7.27
2022-12-20T09:47:11.217Z,7.80
2022-12-20T09:49:44.368Z,7.07
2022-12-20T09:52:18.214Z,8.43
2022-12-20T09:54:58.155Z,8.27
2022-12-20T09:57:46.160Z,8.03
2022-12-20T10:00:18.722Z,8.13
2022-12-20T10:03:09.501Z,7.57
2022-12-20T10:05:42.656Z,7.83
2022-12-20T10:08:37.461Z,7.43
2022-12-20T10:11:31.655Z,7.40
2022-12-20T10:14:14.338Z,6.97
2022-12-20T10:16:57.001Z,6.23
2022-12-20T10:19:44.130Z,6.20
2022-12-20T10:22:20.068Z,6.30
2022-12-20T10:25:20.964Z,5.43
2022-12-20T10:27:50.710Z,5.13
2022-12-20T10:30:24.537Z,5.20
2022-12-20T10:32:54.811Z,4.13
2022-12-20T10:35:41.446Z,4.77
2022-12-20T10:38:13.025Z,4.50
2022-12-20T10:43:43.127Z,4.10
2022-12-20T10:46:12.915Z,4.03
2022-12-20T10:48:41.988Z,3.90
2022-12-20T10:51:15.091Z,3.90
2022-12-20T10:54:02.702Z,3.60
2022-12-20T10:56:32.593Z,4.13
2022-12-20T10:59:02.170Z,3.67
2022-12-20T11:01:34.204Z,4.10
2022-12-20T11:04:04.713Z,3.40
2022-12-20T11:06:37.752Z,3.43
2022-12-20T11:09:27.050Z,3.13
2022-12-20T11:12:06.898Z,3.13
2022-12-20T11:14:39.316Z,3.33
2022-12-20T11:17:25.332Z,3.10
2022-12-20T11:20:15.208Z,3.57
2022-12-20T11:23:14.303Z,3.33
2022-12-20T11:25:50.431Z,2.90
2022-12-20T11:28:34.377Z,3.70
2022-12-20T11:31:07.360Z,4.00
2022-12-20T11:33:38.276Z,3.70
2022-12-20T11:36:09.379Z,3.40
2022-12-20T11:38:52.828Z,3.47
2022-12-20T11:41:45.396Z,3.60
2022-12-20T11:44:25.912Z,3.90
2022-12-20T11:47:34.752Z,3.70
2022-12-20T11:50:23.199Z,6.90
2022-12-20T11:52:58.405Z,5.60
2022-12-20T11:55:38.171Z,5.93
2022-12-20T11:58:26.899Z,5.37
2022-12-20T12:00:56.138Z,5.00
2022-12-20T12:03:48.036Z,5.20
2022-12-20T12:06:21.454Z,4.70
2022-12-20T12:09:06.545Z,4.60
2022-12-20T12:12:06.051Z,5.10
2022-12-20T12:14:52.726Z,5.33
2022-12-20T12:17:57.126Z,5.17
2022-12-20T12:20:33.945Z,5.67
2022-12-20T12:23:24.323Z,6.83
2022-12-20T12:25:51.727Z,5.50
2022-12-20T12:28:20.889Z,5.67
2022-12-20T12:30:56.820Z,6.00
2022-12-20T12:33:38.992Z,5.53
2022-12-20T12:36:08.787Z,5.10
2022-12-20T12:39:01.947Z,5.47
2022-12-20T12:41:33.297Z,5.40
2022-12-20T12:44:29.232Z,5.87
2022-12-20T12:47:01.003Z,5.97
2022-12-20T12:49:30.185Z,4.90
2022-12-20T12:52:00.616Z,6.13
2022-12-20T12:54:40.248Z,6.30
2022-12-20T12:57:18.049Z,5.83
2022-12-20T12:59:48.130Z,5.20
2022-12-20T13:02:16.731Z,5.80
2022-12-20T13:05:15.924Z,5.53
2022-12-20T13:07:44.925Z,6.40
2022-12-20T13:10:15.059Z,6.20
2022-12-20T13:12:42.011Z,6.33
2022-12-20T13:15:21.198Z,6.23
2022-12-20T13:17:58.179Z,6.40
2022-12-20T13:20:35.868Z,6.23
2022-12-20T13:23:07.382Z,6.70
2022-12-20T13:25:38.709Z,6.07
2022-12-20T13:28:23.738Z,5.40
2022-12-20T13:31:02.847Z,6.13
2022-12-20T13:33:41.809Z,7.27
2022-12-20T13:36:12.515Z,7.33
2022-12-20T13:38:50.890Z,7.20
2022-12-20T13:41:37.650Z,7.77
2022-12-20T13:44:16.742Z,7.60
2022-12-20T13:46:50.614Z,7.30
2022-12-20T13:49:40.642Z,6.47
2022-12-20T13:52:42.260Z,6.07
2022-12-20T13:55:35.666Z,6.57
2022-12-20T13:58:22.670Z,6.30
2022-12-20T14:00:50.585Z,6.27
2022-12-20T14:03:28.695Z,6.60
2022-12-20T14:06:02.016Z,7.00
2022-12-20T14:08:35.647Z,6.50
2022-12-20T14:11:31.718Z,6.43
2022-12-20T14:14:03.653Z,5.83
2022-12-20T14:16:32.657Z,6.40
2022-12-20T14:19:03.379Z,6.07
2022-12-20T14:21:31.297Z,6.23
2022-12-20T14:24:00.777Z,6.67
2022-12-20T14:26:30.156Z,6.63
2022-12-20T14:28:59.035Z,6.23
2022-12-20T14:31:32.232Z,7.77
2022-12-20T14:34:11.870Z,8.13
2022-12-20T14:36:44.958Z,8.60
2022-12-20T14:39:36.594Z,7.93
2022-12-20T14:42:06.873Z,7.60
2022-12-20T14:44:35.307Z,6.70
2022-12-20T14:47:18.774Z,8.20
2022-12-20T14:49:58.785Z,5.80
2022-12-20T14:52:39.044Z,5.67
2022-12-20T14:55:12.833Z,6.37
2022-12-20T14:57:46.965Z,7.07
2022-12-20T15:00:17.653Z,6.20
2022-12-20T15:02:59.208Z,5.77
2022-12-20T15:05:36.420Z,6.70
2022-12-20T15:08:21.754Z,5.80
2022-12-20T15:11:08.903Z,5.90
2022-12-20T15:13:37.568Z,7.63
2022-12-20T15:16:14.273Z,5.90
2022-12-20T15:18:41.655Z,7.40
2022-12-20T15:21:41.036Z,7.07
2022-12-20T15:24:21.960Z,6.60
2022-12-20T15:26:50.037Z,6.00
2022-12-20T15:29:25.603Z,5.07
2022-12-20T15:32:00.834Z,6.60
2022-12-20T15:34:29.453Z,6.53
2022-12-20T15:36:59.979Z,7.07
2022-12-20T15:39:27.495Z,5.97
2022-12-20T15:41:56.665Z,6.37
2022-12-20T15:44:26.242Z,7.13
2022-12-20T15:46:53.684Z,7.20
2022-12-20T15:49:24.055Z,7.13
2022-12-20T15:51:52.849Z,7.50
2022-12-20T15:54:27.336Z,7.10
2022-12-20T15:56:55.594Z,8.47
2022-12-20T16:02:25.480Z,7.17
2022-12-20T16:04:55.201Z,6.27
2022-12-20T16:07:22.482Z,6.50
2022-12-20T16:09:54.145Z,6.43
2022-12-20T16:12:20.939Z,6.70
2022-12-20T16:14:48.195Z,7.53
2022-12-20T16:17:16.726Z,6.87
2022-12-20T16:19:44.445Z,6.33
2022-12-20T16:22:19.880Z,7.17
2022-12-20T16:24:47.052Z,6.17
2022-12-20T16:27:14.038Z,7.37
2022-12-20T16:29:41.603Z,5.53
2022-12-20T16:32:16.588Z,6.13
2022-12-20T16:34:46.282Z,6.40
2022-12-20T16:37:14.005Z,6.33
2022-12-20T16:39:42.090Z,7.83
2022-12-20T16:42:17.154Z,7.67
2022-12-20T16:44:46.232Z,7.43
2022-12-20T16:47:14.554Z,7.40
2022-12-20T16:49:51.260Z,7.57
2022-12-20T16:52:20.745Z,6.70
2022-12-20T16:54:48.238Z,6.73
2022-12-20T16:57:15.513Z,5.53
2022-12-20T16:59:42.434Z,6.83
2022-12-20T17:02:41.749Z,7.53
2022-12-20T17:05:27.528Z,6.23
2022-12-20T17:07:54.675Z,6.40
2022-12-20T17:10:22.960Z,6.67
2022-12-20T17:12:50.764Z,7.30
2022-12-20T17:15:27.156Z,7.03
2022-12-20T17:17:55.051Z,6.83
2022-12-20T17:20:24.937Z,6.30
2022-12-20T17:25:40.232Z,7.43
2022-12-20T17:28:08.182Z,7.10
2022-12-20T17:30:36.169Z,7.13
2022-12-20T17:33:03.514Z,6.33
2022-12-20T17:35:32.701Z,6.83
2022-12-20T17:38:01.907Z,6.30
2022-12-20T17:40:29.052Z,7.17
2022-12-20T17:42:56.091Z,7.87
2022-12-20T17:45:33.181Z,7.40
2022-12-20T17:48:00.461Z,7.67
2022-12-20T17:50:28.445Z,9.90
2022-12-20T17:52:55.574Z,7.43
2022-12-20T17:55:28.026Z,7.93
2022-12-20T17:57:55.784Z,8.03
2022-12-20T18:00:39.023Z,8.07
2022-12-20T18:03:07.274Z,8.67
2022-12-20T18:05:34.313Z,7.57
2022-12-20T18:08:01.213Z,8.17
2022-12-20T18:10:29.098Z,8.33
2022-12-20T18:12:56.465Z,6.97
2022-12-20T18:15:24.417Z,6.67
2022-12-20T18:17:51.565Z,7.27
2022-12-20T18:20:19.542Z,9.20
2022-12-20T18:22:48.571Z,8.07
2022-12-20T18:25:18.479Z,7.77
2022-12-20T18:27:45.422Z,7.43
2022-12-20T18:30:15.091Z,7.40
2022-12-20T18:32:42.247Z,6.97
2022-12-20T18:35:10.442Z,7.10
2022-12-20T18:37:37.514Z,7.03
2022-12-20T18:40:04.950Z,7.23
2022-12-20T18:42:31.964Z,7.30
2022-12-20T18:44:58.949Z,7.50
2022-12-20T18:47:26.134Z,7.97
2022-12-20T18:49:53.819Z,7.43
2022-12-20T18:52:21.653Z,6.40
2022-12-20T18:54:49.407Z,6.60
2022-12-20T18:57:16.554Z,6.00
2022-12-20T18:59:44.615Z,8.33
2022-12-20T19:02:13.034Z,8.80
2022-12-20T19:04:43.492Z,9.23
2022-12-20T19:07:11.239Z,7.47
2022-12-20T19:09:38.201Z,6.93
2022-12-20T19:12:05.582Z,6.80
2022-12-20T19:14:32.531Z,6.70
2022-12-20T19:16:59.645Z,6.00
2022-12-20T19:19:26.722Z,7.17
2022-12-20T19:21:53.626Z,7.03
2022-12-20T19:24:21.447Z,6.63
2022-12-20T19:26:48.851Z,7.60
2022-12-20T19:29:17.611Z,6.70
2022-12-20T19:31:44.887Z,6.07
2022-12-20T19:34:12.865Z,5.27
2022-12-20T19:36:46.616Z,6.00
2022-12-20T19:39:23.164Z,5.73
2022-12-20T19:42:21.737Z,5.20
2022-12-20T19:44:38.012Z,5.70
2022-12-20T19:47:05.118Z,4.80
2022-12-20T19:49:32.113Z,5.00
2022-12-20T19:51:59.147Z,4.83
2022-12-20T19:54:26.662Z,5.10
2022-12-20T19:56:53.594Z,5.37
2022-12-20T19:59:21.752Z,5.27
2022-12-20T20:01:49.338Z,5.83
2022-12-20T20:04:16.925Z,5.37
2022-12-20T20:06:43.889Z,5.53
2022-12-20T20:09:11.593Z,5.67
2022-12-20T20:11:38.549Z,4.80
2022-12-20T20:14:09.382Z,4.90
2022-12-20T20:16:37.613Z,5.17
2022-12-20T20:19:05.752Z,6.57
2022-12-20T20:21:35.108Z,7.60
2022-12-20T20:24:02.602Z,8.10
2022-12-20T20:26:31.726Z,9.47
2022-12-20T20:29:01.425Z,11.83
2022-12-20T20:31:28.481Z,8.13
2022-12-20T20:33:57.921Z,7.47
2022-12-20T20:36:24.940Z,7.07
2022-12-20T20:38:52.449Z,6.87
2022-12-20T20:41:20.299Z,5.97
2022-12-20T20:43:47.475Z,5.43
2022-12-20T20:46:17.482Z,4.97
2022-12-20T20:48:44.850Z,5.40
2022-12-20T20:51:12.940Z,4.80
2022-12-20T20:53:40.076Z,4.87
2022-12-20T20:56:08.497Z,4.70
2022-12-20T20:58:36.392Z,7.60
2022-12-20T21:01:08.525Z,5.10
2022-12-20T21:03:35.818Z,6.10
2022-12-20T21:06:38.688Z,5.63
2022-12-20T21:08:53.111Z,6.23
2022-12-20T21:11:20.976Z,7.60
2022-12-20T21:13:48.609Z,7.97
2022-12-20T21:16:20.977Z,7.63
2022-12-20T21:18:53.503Z,6.97
2022-12-20T21:21:21.838Z,6.03
2022-12-20T21:23:49.264Z,6.37
2022-12-20T21:26:18.235Z,5.50
2022-12-20T21:28:45.607Z,5.67
2022-12-20T21:31:18.022Z,5.90
2022-12-20T21:33:46.467Z,5.00
2022-12-20T21:36:16.996Z,5.70
2022-12-20T21:38:50.381Z,5.03
2022-12-20T21:41:19.091Z,4.73
2022-12-20T21:43:49.769Z,5.23
2022-12-20T21:46:18.107Z,5.10
2022-12-20T21:48:45.204Z,4.53
2022-12-20T21:51:15.340Z,4.40
2022-12-20T21:53:47.151Z,4.83
2022-12-20T21:56:15.922Z,4.53
2022-12-20T21:58:44.829Z,4.77
2022-12-20T22:01:14.449Z,3.97
2022-12-20T22:03:41.799Z,3.60
2022-12-20T22:06:11.705Z,3.70
2022-12-20T22:08:38.664Z,3.30
2022-12-20T22:11:13.860Z,3.10
2022-12-20T22:13:42.324Z,3.30
2022-12-20T22:16:17.161Z,3.03
2022-12-20T22:18:50.731Z,3.93
2022-12-20T22:21:19.507Z,4.03
2022-12-20T22:23:46.890Z,4.43
2022-12-20T22:26:17.526Z,3.50
2022-12-20T22:28:53.345Z,3.37
2022-12-20T22:31:21.073Z,3.47
2022-12-20T22:33:49.424Z,3.70
2022-12-20T22:36:17.281Z,2.80
2022-12-20T22:38:44.896Z,2.93
2022-12-20T22:41:41.818Z,4.20
2022-12-20T22:44:08.894Z,3.13
2022-12-20T22:46:35.838Z,4.47
2022-12-20T22:49:02.879Z,3.73
2022-12-20T22:51:33.515Z,6.07
2022-12-20T22:54:01.477Z,4.43
2022-12-20T22:56:28.486Z,4.97
2022-12-20T22:58:57.185Z,5.30
2022-12-20T23:01:27.738Z,6.27
2022-12-20T23:03:54.966Z,5.77
2022-12-20T23:06:22.326Z,5.63
2022-12-20T23:08:50.587Z,5.03
2022-12-20T23:11:41.549Z,5.23
2022-12-20T23:14:31.941Z,5.20
2022-12-20T23:16:59.444Z,4.83
2022-12-20T23:19:26.943Z,4.83
2022-12-20T23:22:12.598Z,5.20
2022-12-20T23:24:39.490Z,5.30
2022-12-20T23:27:07.595Z,4.77
2022-12-20T23:29:34.580Z,4.90
2022-12-20T23:32:01.601Z,5.93
2022-12-20T23:34:28.668Z,5.27
2022-12-20T23:36:55.997Z,5.63
2022-12-20T23:39:24.077Z,5.70
2022-12-20T23:41:51.844Z,4.60
2022-12-20T23:44:19.496Z,4.10
2022-12-20T23:46:46.457Z,4.33
2022-12-20T23:49:14.623Z,3.37
2022-12-20T23:51:43.552Z,3.30
2022-12-20T23:54:11.414Z,4.20
2022-12-20T23:56:38.334Z,3.43
2022-12-20T23:59:05.289Z,3.57
